Time;durP1;ratioP1;P1;durP2;ratioP2;P2;SDS_P1;SDS_P2;PMS_P1;PMS_P2;Temp;Humidity;BMP_temperature;BMP_pressure;BME280_temperature;BME280_humidity;BME280_pressure;Samples;Min_cycle;Max_cycle;Signal;HPM_P1;HPM_P2
2022/11/02 00:01:44;;;;;;;;;;;13.20;99.90;;;;;;5025322;28;20024;-69
2022/11/02 00:04:11;;;;;;;;;;;13.20;99.90;;;;;;5021592;28;19992;-68
2022/11/02 00:06:37;;;;;;;;;;;13.20;99.90;;;;;;5022275;28;19929;-69
2022/11/02 00:09:04;;;;;;;;;;;13.20;99.90;;;;;;5030552;28;19968;-69
2022/11/02 00:11:31;;;;;;;;;;;13.10;99.90;;;;;;5029225;28;19987;-69
2022/11/02 00:13:59;;;;;;;;;;;13.10;99.90;;;;;;5027629;28;20434;-68
2022/11/02 00:16:25;;;;;;;;;;;13.10;99.90;;;;;;5023298;28;19972;-69
2022/11/02 00:18:54;;;;;;;;;;;13.10;99.90;;;;;;5024376;28;20012;-68
2022/11/02 00:21:21;;;;;;;;;;;13.10;99.90;;;;;;5019187;28;20280;-68
2022/11/02 00:23:49;;;;;;;;;;;13.00;99.90;;;;;;5018576;28;19933;-68
2022/11/02 00:26:15;;;;;;;;;;;13.10;99.90;;;;;;5039030;28;20035;-68
2022/11/02 00:28:43;;;;;;;;;;;13.00;99.90;;;;;;5043492;28;19926;-68
2022/11/02 00:31:11;;;;;;;;;;;12.90;99.90;;;;;;5026058;28;20024;-68
2022/11/02 00:33:38;;;;;;;;;;;13.00;99.90;;;;;;5031281;28;20467;-69
2022/11/02 00:36:04;;;;;;;;;;;13.00;99.90;;;;;;5020546;28;19931;-69
2022/11/02 00:38:31;;;;;;;;;;;13.00;99.90;;;;;;5029334;28;19960;-69
2022/11/02 00:40:58;;;;;;;;;;;13.00;99.90;;;;;;5033467;28;19932;-70
2022/11/02 00:43:25;;;;;;;;;;;13.00;99.90;;;;;;5025811;28;19952;-68
2022/11/02 00:45:52;;;;;;;;;;;12.90;99.90;;;;;;5032697;28;20386;-68
2022/11/02 00:48:20;;;;;;;;;;;12.80;99.90;;;;;;5051592;28;19937;-69
2022/11/02 00:50:47;;;;;;;;;;;12.90;99.90;;;;;;5032844;28;20304;-69
2022/11/02 00:53:13;;;;;;;;;;;12.80;99.90;;;;;;5032450;28;20504;-67
2022/11/02 00:55:40;;;;;;;;;;;12.80;99.90;;;;;;5030773;28;19929;-69
2022/11/02 00:58:06;;;;;;;;;;;12.70;99.90;;;;;;5032752;28;20027;-69
2022/11/02 01:00:33;;;;;;;;;;;12.80;99.90;;;;;;5032521;28;19925;-70
2022/11/02 01:03:00;;;;;;;;;;;12.70;99.90;;;;;;5031772;28;20024;-70
2022/11/02 01:05:29;;;;;;;;;;;12.70;99.90;;;;;;5027900;28;19925;-69
2022/11/02 01:07:56;;;;;;;;;;;12.70;99.90;;;;;;5032652;28;20023;-68
2022/11/02 01:10:24;;;;;;;;;;;12.70;99.90;;;;;;5032869;28;19926;-67
2022/11/02 01:12:51;;;;;;;;;;;12.70;99.90;;;;;;5027787;28;19968;-69
2022/11/02 01:15:18;;;;;;;;;;;12.70;99.90;;;;;;5032804;28;20004;-70
2022/11/02 01:17:44;;;;;;;;;;;12.70;99.90;;;;;;5032641;28;19931;-69
2022/11/02 01:20:11;;;;;;;;;;;12.70;99.90;;;;;;5028705;28;19925;-69
2022/11/02 01:22:39;;;;;;;;;;;12.60;99.90;;;;;;5039723;28;19924;-69
2022/11/02 01:25:06;;;;;;;;;;;12.60;99.90;;;;;;5032496;28;19931;-69
2022/11/02 01:27:33;;;;;;;;;;;12.60;99.90;;;;;;5032767;28;19936;-69
2022/11/02 01:30:00;;;;;;;;;;;12.60;99.90;;;;;;5032531;28;19932;-69
2022/11/02 01:32:28;;;;;;;;;;;12.70;99.90;;;;;;5041580;28;20020;-68
2022/11/02 01:34:55;;;;;;;;;;;12.70;99.90;;;;;;5029991;28;20594;-69
2022/11/02 01:37:22;;;;;;;;;;;12.70;99.90;;;;;;5031879;28;19925;-67
2022/11/02 01:39:50;;;;;;;;;;;12.60;99.90;;;;;;5031882;28;19932;-69
2022/11/02 01:42:17;;;;;;;;;;;12.60;99.90;;;;;;5031384;28;20016;-67
2022/11/02 01:44:44;;;;;;;;;;;12.60;99.90;;;;;;5031522;28;19926;-67
2022/11/02 01:47:14;;;;;;;;;;;12.60;99.90;;;;;;5028999;28;19937;-66
2022/11/02 01:49:42;;;;;;;;;;;12.70;99.90;;;;;;5031182;28;19925;-67
2022/11/02 01:52:11;;;;;;;;;;;12.70;99.90;;;;;;5031764;28;20423;-67
2022/11/02 01:54:40;;;;;;;;;;;12.70;99.90;;;;;;5028088;28;20001;-67
2022/11/02 01:57:12;;;;;;;;;;;12.70;99.90;;;;;;5029212;28;19925;-67
2022/11/02 01:59:42;;;;;;;;;;;12.60;99.90;;;;;;5032386;28;20020;-67
2022/11/02 02:02:11;;;;;;;;;;;12.60;99.90;;;;;;5032565;28;19925;-67
2022/11/02 02:04:38;;;;;;;;;;;12.70;99.90;;;;;;5026898;28;20061;-67
2022/11/02 02:07:05;;;;;;;;;;;12.70;99.90;;;;;;5029154;28;20016;-67
2022/11/02 02:09:32;;;;;;;;;;;12.70;99.90;;;;;;5042739;28;20379;-67
2022/11/02 02:11:59;;;;;;;;;;;12.80;99.90;;;;;;5050381;28;20007;-67
2022/11/02 02:14:27;;;;;;;;;;;12.80;99.90;;;;;;5032921;28;19936;-67
2022/11/02 02:17:02;;;;;;;;;;;12.80;99.90;;;;;;5029005;28;19925;-67
2022/11/02 02:19:32;;;;;;;;;;;12.80;99.90;;;;;;5027913;28;19925;-67
2022/11/02 02:22:07;;;;;;;;;;;12.70;99.90;;;;;;5031544;28;20020;-68
2022/11/02 02:24:42;;;;;;;;;;;12.70;99.90;;;;;;5028690;28;20008;-67
2022/11/02 02:27:12;;;;;;;;;;;12.60;99.90;;;;;;5026497;28;19932;-67
2022/11/02 02:29:45;;;;;;;;;;;12.60;99.90;;;;;;5035288;28;19932;-68
2022/11/02 02:32:14;;;;;;;;;;;12.60;99.90;;;;;;5028378;28;20277;-68
2022/11/02 02:34:48;;;;;;;;;;;12.50;99.90;;;;;;5037438;28;19931;-68
2022/11/02 02:37:17;;;;;;;;;;;12.40;99.90;;;;;;5050223;28;19925;-68
2022/11/02 02:39:46;;;;;;;;;;;12.40;99.90;;;;;;5034468;28;20354;-68
2022/11/02 02:42:18;;;;;;;;;;;12.40;99.90;;;;;;5035217;28;20355;-68
2022/11/02 02:44:49;;;;;;;;;;;12.40;99.90;;;;;;5031886;28;19926;-68
2022/11/02 02:47:17;;;;;;;;;;;12.30;99.90;;;;;;5043817;28;20015;-68
2022/11/02 02:49:46;;;;;;;;;;;12.40;99.90;;;;;;5028750;28;20400;-67
2022/11/02 02:52:14;;;;;;;;;;;12.40;99.90;;;;;;5034246;28;20407;-68
2022/11/02 02:54:43;;;;;;;;;;;12.50;99.90;;;;;;5031586;28;20313;-68
2022/11/02 02:57:11;;;;;;;;;;;12.50;99.90;;;;;;5034915;28;20040;-68
2022/11/02 02:59:40;;;;;;;;;;;12.60;99.90;;;;;;5034295;28;19925;-68
2022/11/02 03:02:14;;;;;;;;;;;12.60;99.90;;;;;;5033637;28;20043;-69
2022/11/02 03:04:41;;;;;;;;;;;12.60;99.90;;;;;;5031607;28;19975;-68
2022/11/02 03:07:11;;;;;;;;;;;12.50;99.90;;;;;;5035179;28;19976;-68
2022/11/02 03:09:40;;;;;;;;;;;12.50;99.90;;;;;;5031714;28;20449;-68
2022/11/02 03:12:13;;;;;;;;;;;12.50;99.90;;;;;;5033602;28;19932;-68
2022/11/02 03:14:46;;;;;;;;;;;12.40;99.90;;;;;;5032733;28;20431;-68
2022/11/02 03:17:16;;;;;;;;;;;12.30;99.90;;;;;;5034085;28;19969;-68
2022/11/02 03:19:48;;;;;;;;;;;12.20;99.90;;;;;;5033392;28;20162;-68
2022/11/02 03:22:19;;;;;;;;;;;12.20;99.90;;;;;;5033698;28;19925;-68
2022/11/02 03:24:50;;;;;;;;;;;12.20;99.90;;;;;;5030552;28;19932;-68
2022/11/02 03:27:19;;;;;;;;;;;12.20;99.90;;;;;;5025946;28;19925;-68
2022/11/02 03:29:50;;;;;;;;;;;12.10;99.90;;;;;;5051821;28;20004;-68
2022/11/02 03:32:20;;;;;;;;;;;12.20;99.90;;;;;;5034901;28;20115;-68
2022/11/02 03:34:48;;;;;;;;;;;12.20;99.90;;;;;;5032284;28;20015;-68
2022/11/02 03:37:18;;;;;;;;;;;12.30;99.90;;;;;;5034888;28;19933;-68
2022/11/02 03:39:49;;;;;;;;;;;12.30;99.90;;;;;;5032130;28;19952;-68
2022/11/02 03:42:18;;;;;;;;;;;12.20;99.90;;;;;;5033818;28;19926;-68
2022/11/02 03:44:47;;;;;;;;;;;12.10;99.90;;;;;;5033363;28;20392;-68
2022/11/02 03:47:15;;;;;;;;;;;12.10;99.90;;;;;;5029999;28;20067;-68
2022/11/02 03:49:44;;;;;;;;;;;12.10;99.90;;;;;;5032285;28;19932;-68
2022/11/02 03:52:14;;;;;;;;;;;12.00;99.90;;;;;;5033391;28;20309;-69
2022/11/02 03:54:43;;;;;;;;;;;12.00;99.90;;;;;;5029833;28;19925;-68
2022/11/02 03:57:12;;;;;;;;;;;12.00;99.90;;;;;;5033457;28;19987;-68
2022/11/02 03:59:39;;;;;;;;;;;12.00;99.90;;;;;;5033538;28;20019;-68
2022/11/02 04:02:09;;;;;;;;;;;11.90;99.90;;;;;;5037412;28;19933;-69
2022/11/02 04:04:36;;;;;;;;;;;11.90;99.90;;;;;;5032535;28;20025;-68
2022/11/02 04:07:04;;;;;;;;;;;11.90;99.90;;;;;;5033779;28;20012;-69
2022/11/02 04:09:30;;;;;;;;;;;11.80;99.90;;;;;;5032041;28;19925;-68
2022/11/02 04:14:41;;;;;;;;;;;11.80;99.90;;;;;;5032654;28;20007;-69
2022/11/02 04:19:53;;;;;;;;;;;11.80;99.90;;;;;;5031237;28;20032;-68
2022/11/02 04:25:23;;;;;;;;;;;11.70;99.90;;;;;;5036576;28;19932;-68
2022/11/02 04:27:50;;;;;;;;;;;11.60;99.90;;;;;;5032314;28;19925;-68
2022/11/02 04:30:18;;;;;;;;;;;11.60;99.90;;;;;;5028769;28;20020;-68
2022/11/02 04:35:30;;;;;;;;;;;11.60;99.90;;;;;;5031141;28;20039;-68
2022/11/02 04:40:43;;;;;;;;;;;11.60;99.90;;;;;;5031825;28;19988;-69
2022/11/02 04:43:10;;;;;;;;;;;11.60;99.90;;;;;;5032910;28;20007;-69
2022/11/02 04:45:37;;;;;;;;;;;11.50;99.90;;;;;;5032284;28;19925;-67
2022/11/02 04:48:04;;;;;;;;;;;11.50;99.90;;;;;;5030445;28;19933;-67
2022/11/02 04:50:31;;;;;;;;;;;11.50;99.90;;;;;;5042690;28;19924;-68
2022/11/02 04:53:00;;;;;;;;;;;11.50;99.90;;;;;;5051679;28;19940;-68
2022/11/02 04:55:27;;;;;;;;;;;11.50;99.90;;;;;;5030562;28;19936;-69
2022/11/02 04:57:53;;;;;;;;;;;11.40;99.90;;;;;;5032198;28;20356;-68
2022/11/02 05:00:20;;;;;;;;;;;11.40;99.90;;;;;;5029684;28;20540;-68
2022/11/02 05:02:47;;;;;;;;;;;11.40;99.90;;;;;;5029073;28;19932;-68
2022/11/02 05:05:14;;;;;;;;;;;11.40;99.90;;;;;;5032410;28;20291;-69
2022/11/02 05:07:41;;;;;;;;;;;11.40;99.90;;;;;;5031926;28;19933;-68
2022/11/02 05:10:09;;;;;;;;;;;11.30;99.90;;;;;;5029433;28;19926;-68
2022/11/02 05:12:36;;;;;;;;;;;11.30;99.90;;;;;;5029188;28;19964;-68
2022/11/02 05:15:03;;;;;;;;;;;11.20;99.90;;;;;;5030969;28;19925;-68
2022/11/02 05:17:30;;;;;;;;;;;11.20;99.90;;;;;;5044818;28;19932;-68
2022/11/02 05:19:56;;;;;;;;;;;11.10;99.90;;;;;;5031012;28;19936;-68
2022/11/02 05:22:23;;;;;;;;;;;11.10;99.90;;;;;;5041061;28;20007;-69
2022/11/02 05:24:50;;;;;;;;;;;11.10;99.90;;;;;;5028902;28;19926;-68
2022/11/02 05:27:18;;;;;;;;;;;11.10;99.90;;;;;;5030679;28;19935;-68
2022/11/02 05:29:44;;;;;;;;;;;11.10;99.90;;;;;;5029442;28;20016;-68
2022/11/02 05:32:11;;;;;;;;;;;11.10;99.90;;;;;;5031292;28;19931;-68
2022/11/02 05:34:38;;;;;;;;;;;11.10;99.90;;;;;;5032108;28;20024;-69
2022/11/02 05:37:04;;;;;;;;;;;10.90;99.90;;;;;;5027229;28;19925;-69
2022/11/02 05:39:31;;;;;;;;;;;10.90;99.90;;;;;;5031822;28;19925;-69
2022/11/02 05:41:57;;;;;;;;;;;10.80;99.90;;;;;;5043180;28;19931;-68
2022/11/02 05:44:25;;;;;;;;;;;10.80;99.90;;;;;;5050427;28;19943;-68
2022/11/02 05:46:52;;;;;;;;;;;10.80;99.90;;;;;;5050287;28;19938;-68
2022/11/02 05:49:19;;;;;;;;;;;10.80;99.90;;;;;;5050861;28;19928;-68
2022/11/02 05:51:45;;;;;;;;;;;10.80;99.90;;;;;;5032982;28;19956;-68
2022/11/02 05:54:12;;;;;;;;;;;10.70;99.90;;;;;;5027539;28;21100;-68
2022/11/02 05:56:39;;;;;;;;;;;10.70;99.90;;;;;;5032030;28;19968;-68
2022/11/02 05:59:06;;;;;;;;;;;10.60;99.90;;;;;;5035896;28;20015;-68
2022/11/02 06:01:34;;;;;;;;;;;10.70;99.90;;;;;;5032537;28;20008;-68
2022/11/02 06:04:00;;;;;;;;;;;10.60;99.90;;;;;;5037437;28;19955;-68
2022/11/02 06:06:27;;;;;;;;;;;10.60;99.90;;;;;;5033892;28;19999;-68
2022/11/02 06:08:54;;;;;;;;;;;10.50;99.90;;;;;;5031792;28;20406;-68
2022/11/02 06:11:21;;;;;;;;;;;10.50;99.90;;;;;;5036000;28;20439;-68
2022/11/02 06:13:49;;;;;;;;;;;10.50;99.90;;;;;;5035903;28;20370;-69
2022/11/02 06:16:16;;;;;;;;;;;10.50;99.90;;;;;;5035266;28;19925;-69
2022/11/02 06:18:44;;;;;;;;;;;10.50;99.90;;;;;;5035658;28;19925;-68
2022/11/02 06:21:11;;;;;;;;;;;10.50;99.90;;;;;;5030452;28;19925;-69
2022/11/02 06:23:38;;;;;;;;;;;10.50;99.90;;;;;;5035618;28;19925;-68
2022/11/02 06:26:05;;;;;;;;;;;10.50;99.90;;;;;;5035734;28;19948;-68
2022/11/02 06:28:32;;;;;;;;;;;10.50;99.90;;;;;;5035295;28;19925;-69
2022/11/02 06:30:58;;;;;;;;;;;10.50;99.90;;;;;;5034550;28;19925;-69
2022/11/02 06:33:25;;;;;;;;;;;10.50;99.90;;;;;;5032708;28;19925;-69
2022/11/02 06:35:53;;;;;;;;;;;10.40;99.90;;;;;;5034411;28;19932;-69
2022/11/02 06:38:21;;;;;;;;;;;10.40;99.90;;;;;;5042470;28;19975;-69
2022/11/02 06:40:54;;;;;;;;;;;10.40;99.90;;;;;;5032615;28;20451;-67
2022/11/02 06:43:20;;;;;;;;;;;10.40;99.90;;;;;;5040553;28;20004;-72
2022/11/02 06:45:47;;;;;;;;;;;10.40;99.90;;;;;;5035250;28;19929;-68
2022/11/02 06:48:13;;;;;;;;;;;10.40;99.90;;;;;;5035594;28;19947;-68
2022/11/02 06:50:40;;;;;;;;;;;10.40;99.90;;;;;;5032721;28;19975;-68
2022/11/02 06:53:08;;;;;;;;;;;10.40;99.90;;;;;;5046782;28;19972;-68
2022/11/02 06:55:35;;;;;;;;;;;10.40;99.90;;;;;;5040605;28;19932;-68
2022/11/02 06:58:01;;;;;;;;;;;10.40;99.90;;;;;;5035221;28;19925;-69
2022/11/02 07:00:29;;;;;;;;;;;10.40;99.90;;;;;;5045814;28;20428;-68
2022/11/02 07:02:59;;;;;;;;;;;10.40;99.90;;;;;;5051203;28;19933;-68
2022/11/02 07:05:25;;;;;;;;;;;10.40;99.90;;;;;;5038516;28;20011;-68
2022/11/02 07:07:52;;;;;;;;;;;10.40;99.90;;;;;;5034634;28;20299;-69
2022/11/02 07:10:20;;;;;;;;;;;10.40;99.90;;;;;;5033238;28;19965;-68
2022/11/02 07:12:47;;;;;;;;;;;10.40;99.90;;;;;;5038628;28;20051;-69
2022/11/02 07:15:14;;;;;;;;;;;10.50;99.90;;;;;;5034234;28;19932;-68
2022/11/02 07:17:40;;;;;;;;;;;10.60;99.90;;;;;;5032424;28;20012;-68
2022/11/02 07:20:09;;;;;;;;;;;10.60;99.90;;;;;;5043257;28;20304;-69
2022/11/02 07:22:36;;;;;;;;;;;10.50;99.90;;;;;;5042620;28;19925;-69
2022/11/02 07:25:02;;;;;;;;;;;10.50;99.90;;;;;;5051278;28;19952;-69
2022/11/02 07:27:30;;;;;;;;;;;10.60;99.90;;;;;;5027916;28;19926;-68
2022/11/02 07:29:58;;;;;;;;;;;10.60;99.90;;;;;;5031979;28;20020;-69
2022/11/02 07:32:24;;;;;;;;;;;10.60;99.90;;;;;;5027926;28;19932;-69
2022/11/02 07:34:51;;;;;;;;;;;10.60;99.90;;;;;;5027895;28;20299;-68
2022/11/02 07:37:18;;;;;;;;;;;10.70;99.90;;;;;;5033933;28;19932;-68
2022/11/02 07:39:44;;;;;;;;;;;10.70;99.90;;;;;;5026627;28;19925;-68
2022/11/02 07:42:11;;;;;;;;;;;10.70;99.90;;;;;;5027785;28;19968;-68
2022/11/02 07:44:39;;;;;;;;;;;10.80;99.90;;;;;;5029821;28;20011;-68
2022/11/02 07:47:06;;;;;;;;;;;10.80;99.90;;;;;;5033754;28;19932;-68
2022/11/02 07:49:32;;;;;;;;;;;10.90;99.90;;;;;;5034426;28;19961;-68
2022/11/02 07:51:59;;;;;;;;;;;10.90;99.90;;;;;;5032449;28;20299;-69
2022/11/02 07:54:26;;;;;;;;;;;10.90;99.90;;;;;;5030692;28;20012;-69
2022/11/02 07:56:52;;;;;;;;;;;11.00;99.90;;;;;;5038441;28;20443;-68
2022/11/02 07:59:19;;;;;;;;;;;11.10;99.90;;;;;;5026029;28;19948;-68
2022/11/02 08:01:47;;;;;;;;;;;11.80;99.90;;;;;;5027150;28;20398;-69
2022/11/02 08:04:14;;;;;;;;;;;12.50;99.90;;;;;;5032353;28;19979;-68
2022/11/02 08:06:40;;;;;;;;;;;12.10;99.90;;;;;;5037173;28;20359;-69
2022/11/02 08:09:07;;;;;;;;;;;12.60;99.90;;;;;;5032387;28;20435;-68
2022/11/02 08:11:34;;;;;;;;;;;13.50;99.90;;;;;;5050968;28;20393;-68
2022/11/02 08:14:01;;;;;;;;;;;14.10;99.90;;;;;;5037063;28;20373;-68
2022/11/02 08:16:28;;;;;;;;;;;14.60;99.90;;;;;;5030638;28;19925;-69
2022/11/02 08:18:57;;;;;;;;;;;14.50;99.90;;;;;;5033062;28;19940;-68
2022/11/02 08:21:24;;;;;;;;;;;14.60;99.90;;;;;;5031595;28;19925;-69
2022/11/02 08:23:51;;;;;;;;;;;13.90;99.90;;;;;;5031907;28;20015;-68
2022/11/02 08:26:18;;;;;;;;;;;13.60;99.90;;;;;;5033007;28;19983;-68
2022/11/02 08:28:44;;;;;;;;;;;13.90;99.90;;;;;;5023831;28;20403;-69
2022/11/02 08:31:12;;;;;;;;;;;14.40;99.90;;;;;;5032526;28;19932;-68
2022/11/02 08:33:38;;;;;;;;;;;14.80;99.90;;;;;;5030259;28;19932;-68
2022/11/02 08:36:07;;;;;;;;;;;14.90;99.90;;;;;;5036232;28;19931;-69
2022/11/02 08:38:34;;;;;;;;;;;15.20;99.90;;;;;;5034349;28;19926;-68
2022/11/02 08:41:00;;;;;;;;;;;15.40;99.90;;;;;;5033442;28;19935;-68
2022/11/02 08:43:27;;;;;;;;;;;15.60;99.90;;;;;;5032043;28;19925;-68
2022/11/02 08:45:57;;;;;;;;;;;15.80;99.90;;;;;;5028346;28;20007;-68
2022/11/02 08:48:23;;;;;;;;;;;16.40;99.90;;;;;;5043661;28;19932;-69
2022/11/02 08:50:50;;;;;;;;;;;16.50;99.90;;;;;;5029119;28;20382;-68
2022/11/02 08:53:18;;;;;;;;;;;16.40;99.90;;;;;;5032832;28;20023;-69
2022/11/02 08:55:45;;;;;;;;;;;16.40;99.90;;;;;;5033148;28;20012;-68
2022/11/02 08:58:11;;;;;;;;;;;16.10;99.90;;;;;;5023680;28;19932;-68
2022/11/02 09:00:38;;;;;;;;;;;16.00;99.90;;;;;;5016526;28;20012;-68
2022/11/02 09:03:05;;;;;;;;;;;15.70;99.90;;;;;;5031873;28;20007;-68
2022/11/02 09:05:33;;;;;;;;;;;15.70;99.90;;;;;;5030472;28;19925;-69
2022/11/02 09:08:00;;;;;;;;;;;15.90;99.90;;;;;;5012979;28;20106;-68
2022/11/02 09:10:29;;;;;;;;;;;15.90;99.90;;;;;;5013729;28;19943;-69
2022/11/02 09:12:56;;;;;;;;;;;15.50;99.90;;;;;;5025681;28;20011;-69
2022/11/02 09:15:22;;;;;;;;;;;14.80;99.90;;;;;;5030178;28;19931;-70
2022/11/02 09:17:49;;;;;;;;;;;13.90;99.90;;;;;;5022892;28;20048;-68
2022/11/02 09:20:17;;;;;;;;;;;13.30;99.90;;;;;;5022000;28;19968;-69
2022/11/02 09:22:43;;;;;;;;;;;13.00;99.90;;;;;;5028787;28;20404;-68
2022/11/02 09:25:10;;;;;;;;;;;12.90;99.90;;;;;;5031743;28;19929;-70
2022/11/02 09:27:38;;;;;;;;;;;12.80;99.90;;;;;;5031234;28;19972;-69
2022/11/02 09:30:05;;;;;;;;;;;12.90;99.90;;;;;;5014660;28;20009;-69
2022/11/02 09:32:32;;;;;;;;;;;12.90;99.90;;;;;;5015988;28;19926;-70
2022/11/02 09:35:00;;;;;;;;;;;12.90;99.90;;;;;;5017125;28;20006;-70
2022/11/02 09:37:26;;;;;;;;;;;12.90;99.90;;;;;;5025257;28;19971;-71
2022/11/02 09:39:53;;;;;;;;;;;12.90;99.90;;;;;;5022321;28;19987;-71
2022/11/02 09:42:23;;;;;;;;;;;12.90;99.90;;;;;;5021015;28;20019;-71
2022/11/02 09:44:54;;;;;;;;;;;12.90;99.90;;;;;;5026502;28;19925;-71
2022/11/02 09:47:21;;;;;;;;;;;12.90;99.90;;;;;;5032670;28;19925;-71
2022/11/02 09:49:49;;;;;;;;;;;13.00;99.90;;;;;;5052093;28;19931;-72
2022/11/02 09:52:21;;;;;;;;;;;13.00;99.90;;;;;;5026620;28;20401;-71
2022/11/02 09:54:49;;;;;;;;;;;13.00;99.90;;;;;;5028879;28;20012;-71
2022/11/02 09:57:20;;;;;;;;;;;13.10;99.90;;;;;;5025105;28;19926;-71
2022/11/02 09:59:47;;;;;;;;;;;13.10;99.90;;;;;;5026739;28;20392;-71
2022/11/02 10:02:18;;;;;;;;;;;13.20;99.90;;;;;;5025517;28;19968;-71
2022/11/02 10:04:52;;;;;;;;;;;13.30;99.90;;;;;;5024528;28;20019;-71
2022/11/02 10:07:24;;;;;;;;;;;13.20;99.90;;;;;;5021309;28;19982;-71
2022/11/02 10:09:53;;;;;;;;;;;13.30;99.90;;;;;;5025787;28;20038;-71
2022/11/02 10:12:23;;;;;;;;;;;13.30;99.90;;;;;;5031036;28;20008;-70
2022/11/02 10:14:55;;;;;;;;;;;13.30;99.90;;;;;;5024787;28;20017;-72
2022/11/02 10:17:24;;;;;;;;;;;13.30;99.90;;;;;;5037020;28;19924;-70
2022/11/02 10:19:53;;;;;;;;;;;13.30;99.90;;;;;;5029633;28;20357;-70
2022/11/02 10:22:22;;;;;;;;;;;13.30;99.90;;;;;;5027953;28;19933;-71
2022/11/02 10:24:50;;;;;;;;;;;13.40;99.90;;;;;;5023431;28;19975;-71
2022/11/02 10:27:18;;;;;;;;;;;13.40;99.90;;;;;;5034313;28;20370;-70
2022/11/02 10:29:48;;;;;;;;;;;13.40;99.90;;;;;;5036420;28;19935;-71
2022/11/02 10:32:15;;;;;;;;;;;13.50;99.90;;;;;;5027169;28;19975;-71
2022/11/02 10:34:44;;;;;;;;;;;13.60;99.90;;;;;;5024863;28;20015;-72
2022/11/02 10:37:21;;;;;;;;;;;13.70;99.90;;;;;;5014219;28;19925;-73
2022/11/02 10:39:54;;;;;;;;;;;13.70;99.90;;;;;;5030816;28;20021;-72
2022/11/02 10:42:31;;;;;;;;;;;13.80;99.90;;;;;;5029357;28;20099;-71
2022/11/02 10:45:04;;;;;;;;;;;13.70;99.90;;;;;;5046208;28;20337;-71
2022/11/02 10:47:33;;;;;;;;;;;13.70;99.90;;;;;;5025835;28;19925;-71
2022/11/02 10:50:19;;;;;;;;;;;13.80;99.90;;;;;;5034621;28;20330;-70
2022/11/02 10:52:46;;;;;;;;;;;13.70;99.90;;;;;;5031973;28;20019;-71
2022/11/02 10:55:17;;;;;;;;;;;13.60;99.90;;;;;;5027691;28;20012;-71
2022/11/02 10:57:44;;;;;;;;;;;13.60;99.90;;;;;;5033817;28;20356;-70
2022/11/02 11:00:28;;;;;;;;;;;13.70;99.90;;;;;;5034645;28;19979;-72
2022/11/02 11:03:05;;;;;;;;;;;13.80;99.90;;;;;;5031085;28;20007;-70
2022/11/02 11:05:33;;;;;;;;;;;13.80;99.90;;;;;;5033144;28;19925;-71
2022/11/02 11:08:00;;;;;;;;;;;13.90;99.90;;;;;;5032810;28;20013;-71
2022/11/02 11:10:27;;;;;;;;;;;14.10;99.90;;;;;;5041970;28;20011;-70
2022/11/02 11:12:55;;;;;;;;;;;14.00;99.90;;;;;;5029723;28;19932;-71
2022/11/02 11:15:23;;;;;;;;;;;14.10;99.90;;;;;;5030099;28;19931;-70
2022/11/02 11:17:50;;;;;;;;;;;14.00;99.90;;;;;;5029442;28;20037;-70
2022/11/02 11:20:26;;;;;;;;;;;13.90;99.90;;;;;;5032859;28;19933;-70
2022/11/02 11:23:09;;;;;;;;;;;14.00;99.90;;;;;;5026757;28;19965;-71
2022/11/02 11:25:36;;;;;;;;;;;14.10;99.90;;;;;;5024618;28;19940;-71
2022/11/02 11:28:20;;;;;;;;;;;14.30;99.90;;;;;;5030396;28;20031;-71
2022/11/02 11:30:48;;;;;;;;;;;14.50;99.90;;;;;;5027207;28;20025;-73
2022/11/02 11:33:15;;;;;;;;;;;14.70;99.90;;;;;;5019995;28;19955;-71
2022/11/02 11:35:47;;;;;;;;;;;14.80;99.90;;;;;;5027165;28;19925;-72
2022/11/02 11:38:17;;;;;;;;;;;14.70;99.90;;;;;;5031616;28;20023;-71
2022/11/02 11:40:46;;;;;;;;;;;15.10;99.90;;;;;;5036805;28;20368;-72
2022/11/02 11:43:14;;;;;;;;;;;15.20;99.90;;;;;;5033011;28;19928;-72
2022/11/02 11:45:53;;;;;;;;;;;15.10;99.90;;;;;;5031704;28;20451;-71
2022/11/02 11:48:24;;;;;;;;;;;14.90;99.90;;;;;;5045496;28;20008;-72
2022/11/02 11:50:50;;;;;;;;;;;14.80;99.90;;;;;;5039012;28;19968;-72
2022/11/02 11:53:21;;;;;;;;;;;14.70;99.90;;;;;;5037623;28;19925;-69
2022/11/02 11:55:49;;;;;;;;;;;14.70;99.90;;;;;;5041733;28;19999;-69
2022/11/02 11:58:18;;;;;;;;;;;14.90;99.90;;;;;;5033927;28;20032;-72
2022/11/02 12:00:45;;;;;;;;;;;15.10;99.90;;;;;;5033121;28;19929;-71
2022/11/02 12:03:16;;;;;;;;;;;15.00;99.90;;;;;;5027337;28;20490;-72
2022/11/02 12:05:49;;;;;;;;;;;15.10;99.90;;;;;;5029811;28;19979;-72
2022/11/02 12:08:23;;;;;;;;;;;15.10;99.90;;;;;;5029473;28;19925;-72
2022/11/02 12:10:59;;;;;;;;;;;15.30;99.90;;;;;;5031009;28;19932;-74
2022/11/02 12:13:34;;;;;;;;;;;15.30;99.90;;;;;;5030795;28;20011;-72
2022/11/02 12:16:06;;;;;;;;;;;15.30;99.90;;;;;;5025116;28;19925;-72
2022/11/02 12:18:37;;;;;;;;;;;15.30;99.90;;;;;;5037912;28;19926;-72
2022/11/02 12:21:23;;;;;;;;;;;15.20;99.90;;;;;;5027379;28;20192;-72
2022/11/02 12:24:06;;;;;;;;;;;15.20;99.90;;;;;;5029395;28;20001;-72
2022/11/02 12:26:42;;;;;;;;;;;15.20;99.90;;;;;;5045611;28;19925;-72
2022/11/02 12:29:19;;;;;;;;;;;15.30;99.90;;;;;;5033392;28;20439;-72
2022/11/02 12:31:49;;;;;;;;;;;15.20;99.90;;;;;;5029821;28;20307;-72
2022/11/02 12:34:23;;;;;;;;;;;15.20;99.90;;;;;;5036972;28;20019;-71
2022/11/02 12:36:57;;;;;;;;;;;15.30;99.90;;;;;;5026298;28;19932;-72
2022/11/02 12:39:28;;;;;;;;;;;15.30;99.90;;;;;;5025906;28;19925;-70
2022/11/02 12:42:00;;;;;;;;;;;15.20;99.90;;;;;;5020039;28;20008;-72
2022/11/02 12:44:33;;;;;;;;;;;15.20;99.90;;;;;;5029760;28;19932;-73
2022/11/02 12:47:05;;;;;;;;;;;15.10;99.90;;;;;;5015579;28;19931;-72
2022/11/02 12:49:41;;;;;;;;;;;15.10;99.90;;;;;;5023864;28;19933;-71
2022/11/02 12:52:13;;;;;;;;;;;15.10;99.90;;;;;;5036049;28;19931;-71
2022/11/02 12:54:43;;;;;;;;;;;15.10;99.90;;;;;;5017063;28;19929;-72
2022/11/02 12:57:12;;;;;;;;;;;15.20;99.90;;;;;;5012195;28;19929;-72
2022/11/02 12:59:40;;;;;;;;;;;15.30;99.90;;;;;;5012292;28;19932;-74
2022/11/02 13:02:12;;;;;;;;;;;15.30;99.90;;;;;;5025760;28;19925;-70
2022/11/02 13:04:41;;;;;;;;;;;15.10;99.90;;;;;;5025772;28;19926;-70
2022/11/02 13:07:10;;;;;;;;;;;15.10;99.90;;;;;;5023258;28;20430;-73
2022/11/02 13:09:39;;;;;;;;;;;15.20;99.90;;;;;;5027961;28;20012;-70
2022/11/02 13:12:11;;;;;;;;;;;15.30;99.90;;;;;;5022048;28;19931;-70
2022/11/02 13:14:40;;;;;;;;;;;15.40;99.90;;;;;;5027705;28;19932;-72
2022/11/02 13:17:14;;;;;;;;;;;15.40;99.90;;;;;;5033455;28;19968;-72
2022/11/02 13:19:43;;;;;;;;;;;15.30;99.40;;;;;;5040255;28;19925;-71
2022/11/02 13:22:11;;;;;;;;;;;15.30;99.90;;;;;;5027711;28;19929;-72
2022/11/02 13:24:40;;;;;;;;;;;15.20;98.30;;;;;;5030468;28;20007;-72
2022/11/02 13:27:19;;;;;;;;;;;15.20;97.90;;;;;;5029939;28;20012;-70
2022/11/02 13:29:47;;;;;;;;;;;15.20;97.00;;;;;;5028910;28;20426;-71
2022/11/02 13:32:17;;;;;;;;;;;15.10;96.20;;;;;;5025172;28;20013;-71
2022/11/02 13:34:46;;;;;;;;;;;15.00;96.00;;;;;;5024082;28;19984;-71
2022/11/02 13:37:14;;;;;;;;;;;14.90;96.40;;;;;;5019551;28;19932;-72
2022/11/02 13:39:42;;;;;;;;;;;14.80;97.50;;;;;;5024835;28;20016;-72
2022/11/02 13:42:26;;;;;;;;;;;14.90;98.50;;;;;;5023547;28;19940;-71
2022/11/02 13:45:02;;;;;;;;;;;14.90;98.00;;;;;;5014876;28;20356;-71
2022/11/02 13:47:40;;;;;;;;;;;14.90;96.10;;;;;;5020455;28;19931;-72
2022/11/02 13:50:11;;;;;;;;;;;14.90;95.90;;;;;;5021263;28;20415;-71
2022/11/02 13:52:39;;;;;;;;;;;14.90;97.30;;;;;;5025737;28;20476;-72
2022/11/02 13:55:07;;;;;;;;;;;15.00;97.60;;;;;;5024966;28;20043;-71
2022/11/02 13:57:36;;;;;;;;;;;15.00;96.40;;;;;;5017872;28;19960;-71
2022/11/02 14:00:06;;;;;;;;;;;15.00;96.70;;;;;;5019607;28;20160;-70
2022/11/02 14:02:36;;;;;;;;;;;15.00;97.40;;;;;;5024412;28;19955;-72
2022/11/02 14:05:03;;;;;;;;;;;15.00;97.50;;;;;;5032675;28;20035;-72
2022/11/02 14:07:32;;;;;;;;;;;15.00;97.00;;;;;;5026759;28;20377;-72
2022/11/02 14:10:04;;;;;;;;;;;14.90;95.60;;;;;;5037932;28;20012;-71
2022/11/02 14:12:41;;;;;;;;;;;14.90;96.20;;;;;;5025095;28;19925;-71
2022/11/02 14:15:26;;;;;;;;;;;14.90;96.50;;;;;;5030435;28;20044;-71
2022/11/02 14:18:07;;;;;;;;;;;14.80;97.10;;;;;;5030525;28;19924;-70
2022/11/02 14:20:35;;;;;;;;;;;14.70;97.60;;;;;;5032822;28;20289;-70
2022/11/02 14:23:21;;;;;;;;;;;14.70;97.90;;;;;;5031664;28;19979;-71
2022/11/02 14:25:48;;;;;;;;;;;14.70;98.20;;;;;;5049622;28;19932;-71
2022/11/02 14:28:31;;;;;;;;;;;14.60;99.30;;;;;;5034788;28;20303;-72
2022/11/02 14:31:00;;;;;;;;;;;14.60;99.10;;;;;;5022626;28;19925;-71
2022/11/02 14:33:35;;;;;;;;;;;14.50;97.50;;;;;;5030478;28;19969;-72
2022/11/02 14:36:03;;;;;;;;;;;14.50;97.80;;;;;;5033658;28;20160;-71
2022/11/02 14:38:40;;;;;;;;;;;14.40;98.30;;;;;;5031997;28;19986;-71
2022/11/02 14:41:13;;;;;;;;;;;14.40;98.20;;;;;;5032097;28;19939;-71